Time;durP1;ratioP1;P1;durP2;ratioP2;P2;SDS_P1;SDS_P2;PMS_P1;PMS_P2;Temp;Humidity;BMP_temperature;BMP_pressure;BME280_temperature;BME280_humidity;BME280_pressure;Samples;Min_cycle;Max_cycle;Signal;HPM_P1;HPM_P2
2022/08/21 00:01:46;;;;;;;;;;;23.90;48.00;;;;;;5030754;28;19948;-61
2022/08/21 00:04:13;;;;;;;;;;;23.90;48.00;;;;;;5039898;28;19920;-61
2022/08/21 00:06:41;;;;;;;;;;;23.90;48.00;;;;;;5061364;28;20396;-62
2022/08/21 00:09:08;;;;;;;;;;;23.90;48.00;;;;;;5046442;28;19929;-61
2022/08/21 00:11:35;;;;;;;;;;;23.90;48.00;;;;;;5033972;28;19988;-61
2022/08/21 00:14:02;;;;;;;;;;;23.90;48.00;;;;;;5037875;28;19921;-61
2022/08/21 00:16:29;;;;;;;;;;;23.90;48.00;;;;;;5048990;28;19925;-61
2022/08/21 00:18:56;;;;;;;;;;;23.90;48.00;;;;;;5033699;28;19929;-61
2022/08/21 00:21:22;;;;;;;;;;;23.80;47.90;;;;;;5045342;28;19954;-61
2022/08/21 00:23:50;;;;;;;;;;;23.90;48.00;;;;;;5024399;28;19950;-61
2022/08/21 00:26:17;;;;;;;;;;;23.90;48.00;;;;;;5025075;28;19951;-61
2022/08/21 00:28:45;;;;;;;;;;;23.90;48.00;;;;;;5051471;28;19928;-61
2022/08/21 00:31:12;;;;;;;;;;;23.80;47.90;;;;;;5051553;28;19943;-61
2022/08/21 00:33:38;;;;;;;;;;;23.90;48.00;;;;;;5033255;28;19925;-61
2022/08/21 00:36:05;;;;;;;;;;;23.80;47.80;;;;;;5019267;28;20019;-62
2022/08/21 00:38:32;;;;;;;;;;;23.80;47.80;;;;;;5050860;28;19925;-61
2022/08/21 00:41:00;;;;;;;;;;;23.80;47.80;;;;;;5034990;28;19952;-61
2022/08/21 00:43:28;;;;;;;;;;;23.80;47.80;;;;;;5032758;28;19974;-61
2022/08/21 00:45:55;;;;;;;;;;;23.80;47.80;;;;;;5030749;28;19925;-61
2022/08/21 00:48:22;;;;;;;;;;;23.80;47.80;;;;;;5032696;28;19924;-61
2022/08/21 00:50:49;;;;;;;;;;;23.80;47.80;;;;;;5049090;28;19974;-61
2022/08/21 00:53:16;;;;;;;;;;;23.80;47.70;;;;;;5044630;28;19921;-61
2022/08/21 00:55:43;;;;;;;;;;;23.80;47.70;;;;;;5032206;28;19935;-61
2022/08/21 00:58:11;;;;;;;;;;;23.80;47.70;;;;;;5031993;28;19924;-61
2022/08/21 01:00:39;;;;;;;;;;;23.80;47.70;;;;;;5022896;28;19920;-61
2022/08/21 01:03:06;;;;;;;;;;;23.80;47.70;;;;;;5026144;28;19967;-61
2022/08/21 01:05:33;;;;;;;;;;;23.80;47.70;;;;;;5032231;28;20384;-60
2022/08/21 01:08:00;;;;;;;;;;;23.80;48.20;;;;;;5032390;28;19974;-61
2022/08/21 01:10:27;;;;;;;;;;;23.80;47.60;;;;;;5035858;28;20488;-61
2022/08/21 01:12:54;;;;;;;;;;;23.80;47.60;;;;;;5032643;28;19952;-61
2022/08/21 01:15:23;;;;;;;;;;;23.80;47.60;;;;;;5048076;28;20055;-61
2022/08/21 01:17:49;;;;;;;;;;;23.80;47.60;;;;;;5032422;28;20015;-61
2022/08/21 01:20:17;;;;;;;;;;;23.80;47.60;;;;;;5029537;28;19928;-61
2022/08/21 01:22:45;;;;;;;;;;;23.80;47.50;;;;;;5031560;28;19925;-61
2022/08/21 01:25:12;;;;;;;;;;;23.80;47.50;;;;;;5028786;28;20279;-61
2022/08/21 01:27:39;;;;;;;;;;;23.80;47.50;;;;;;5028900;28;20004;-61
2022/08/21 01:30:10;;;;;;;;;;;23.80;47.50;;;;;;5025316;28;20015;-61
2022/08/21 01:32:36;;;;;;;;;;;23.80;47.50;;;;;;5018570;28;19986;-62
2022/08/21 01:35:04;;;;;;;;;;;23.80;47.50;;;;;;5035815;28;19920;-61
2022/08/21 01:37:31;;;;;;;;;;;23.80;47.50;;;;;;5035585;28;20131;-61
2022/08/21 01:39:59;;;;;;;;;;;23.80;47.50;;;;;;5035962;28;19979;-61
2022/08/21 01:42:25;;;;;;;;;;;23.80;47.40;;;;;;5020992;28;19928;-61
2022/08/21 01:44:52;;;;;;;;;;;23.80;47.50;;;;;;5031881;28;19948;-60
2022/08/21 01:47:19;;;;;;;;;;;23.80;48.00;;;;;;5045497;28;19928;-61
2022/08/21 01:49:46;;;;;;;;;;;23.80;47.40;;;;;;5039995;28;19928;-61
2022/08/21 01:52:13;;;;;;;;;;;23.80;47.40;;;;;;5034123;28;19980;-61
2022/08/21 01:54:40;;;;;;;;;;;23.70;47.40;;;;;;5045037;28;20335;-61
2022/08/21 01:57:08;;;;;;;;;;;23.70;47.30;;;;;;5032476;28;20290;-61
2022/08/21 01:59:35;;;;;;;;;;;23.70;47.30;;;;;;5028266;28;19925;-61
2022/08/21 02:02:01;;;;;;;;;;;23.70;47.30;;;;;;5041394;28;19932;-61
2022/08/21 02:04:28;;;;;;;;;;;23.70;47.90;;;;;;5041768;28;19924;-61
2022/08/21 02:06:55;;;;;;;;;;;23.70;47.30;;;;;;5027292;28;19947;-61
2022/08/21 02:09:22;;;;;;;;;;;23.70;47.30;;;;;;5052478;28;19956;-62
2022/08/21 02:11:49;;;;;;;;;;;23.70;47.30;;;;;;5050753;28;20019;-61
2022/08/21 02:14:17;;;;;;;;;;;23.70;47.30;;;;;;5045873;28;19921;-61
2022/08/21 02:16:44;;;;;;;;;;;23.70;47.30;;;;;;5021378;28;19943;-62
2022/08/21 02:19:11;;;;;;;;;;;23.70;47.30;;;;;;5032900;28;19963;-61
2022/08/21 02:21:38;;;;;;;;;;;23.70;47.30;;;;;;5045577;28;19921;-61
2022/08/21 02:24:05;;;;;;;;;;;23.70;47.30;;;;;;5035439;28;19925;-61
2022/08/21 02:26:31;;;;;;;;;;;23.70;47.30;;;;;;5046895;28;19929;-61
2022/08/21 02:28:58;;;;;;;;;;;23.70;47.30;;;;;;5037616;28;20019;-61
2022/08/21 02:31:26;;;;;;;;;;;23.70;47.30;;;;;;5056186;28;19948;-61
2022/08/21 02:33:53;;;;;;;;;;;23.70;47.30;;;;;;5033843;28;20014;-60
2022/08/21 02:36:20;;;;;;;;;;;23.60;47.20;;;;;;5055156;28;19975;-61
2022/08/21 02:38:47;;;;;;;;;;;23.60;47.20;;;;;;5038020;28;19932;-61
2022/08/21 02:41:16;;;;;;;;;;;23.70;47.40;;;;;;5037624;28;20126;-61
2022/08/21 02:43:42;;;;;;;;;;;23.70;47.30;;;;;;5032723;28;19929;-61
2022/08/21 02:46:09;;;;;;;;;;;23.70;47.30;;;;;;5050405;28;19921;-61
2022/08/21 02:48:37;;;;;;;;;;;23.70;47.20;;;;;;5034849;28;19948;-61
2022/08/21 02:51:05;;;;;;;;;;;23.70;47.20;;;;;;5021305;28;19925;-61
2022/08/21 02:53:32;;;;;;;;;;;23.70;47.20;;;;;;5031521;28;19956;-61
2022/08/21 02:55:59;;;;;;;;;;;23.70;47.20;;;;;;5051826;28;19971;-61
2022/08/21 02:58:26;;;;;;;;;;;23.70;47.10;;;;;;5032200;28;19921;-61
2022/08/21 03:00:53;;;;;;;;;;;23.70;47.10;;;;;;5051916;28;19928;-61
2022/08/21 03:03:20;;;;;;;;;;;23.70;47.10;;;;;;5052651;28;19963;-61
2022/08/21 03:05:49;;;;;;;;;;;23.70;47.10;;;;;;5036510;28;19921;-61
2022/08/21 03:08:15;;;;;;;;;;;23.60;47.00;;;;;;5029597;28;20024;-61
2022/08/21 03:10:43;;;;;;;;;;;23.70;47.10;;;;;;5031482;28;20011;-61
2022/08/21 03:13:10;;;;;;;;;;;23.70;47.00;;;;;;5033709;28;19921;-61
2022/08/21 03:15:37;;;;;;;;;;;23.60;47.00;;;;;;5040202;28;20002;-61
2022/08/21 03:18:04;;;;;;;;;;;23.60;47.00;;;;;;5021765;28;19956;-61
2022/08/21 03:20:32;;;;;;;;;;;23.60;46.90;;;;;;5051490;28;20001;-61
2022/08/21 03:23:00;;;;;;;;;;;23.60;46.90;;;;;;5026808;28;19971;-61
2022/08/21 03:25:27;;;;;;;;;;;23.60;46.90;;;;;;5047632;28;19967;-61
2022/08/21 03:27:53;;;;;;;;;;;23.60;46.90;;;;;;5033584;28;19921;-60
2022/08/21 03:30:21;;;;;;;;;;;23.60;46.90;;;;;;5027596;28;19974;-61
2022/08/21 03:32:48;;;;;;;;;;;23.60;46.90;;;;;;5043096;28;20007;-61
2022/08/21 03:35:15;;;;;;;;;;;23.60;46.90;;;;;;5054384;28;19976;-60
2022/08/21 03:37:41;;;;;;;;;;;23.60;46.90;;;;;;5034719;28;19925;-61
2022/08/21 03:40:10;;;;;;;;;;;23.60;46.90;;;;;;5034529;28;19927;-61
2022/08/21 03:42:36;;;;;;;;;;;23.60;46.90;;;;;;5039360;28;19921;-61
2022/08/21 03:45:03;;;;;;;;;;;23.60;46.90;;;;;;5037795;28;19921;-60
2022/08/21 03:47:30;;;;;;;;;;;23.60;46.90;;;;;;5035893;28;19956;-61
2022/08/21 03:49:57;;;;;;;;;;;23.60;46.90;;;;;;5033233;28;19982;-61
2022/08/21 03:52:23;;;;;;;;;;;23.60;46.90;;;;;;5032580;28;20016;-61
2022/08/21 03:54:50;;;;;;;;;;;23.60;46.90;;;;;;5039589;28;19968;-61
2022/08/21 03:57:18;;;;;;;;;;;23.60;46.90;;;;;;5030904;28;20003;-61
2022/08/21 03:59:46;;;;;;;;;;;23.60;46.90;;;;;;5022927;28;19957;-61
2022/08/21 04:02:12;;;;;;;;;;;23.60;46.90;;;;;;5038823;28;20006;-61
2022/08/21 04:04:39;;;;;;;;;;;23.60;46.90;;;;;;5029247;28;19921;-62
2022/08/21 04:07:06;;;;;;;;;;;23.60;46.90;;;;;;5032773;28;20024;-62
2022/08/21 04:09:32;;;;;;;;;;;23.60;46.90;;;;;;5033653;28;19924;-61
2022/08/21 04:11:59;;;;;;;;;;;23.60;46.90;;;;;;5032278;28;20007;-62
2022/08/21 04:14:28;;;;;;;;;;;23.60;46.90;;;;;;5050700;28;19924;-62
2022/08/21 04:16:54;;;;;;;;;;;23.60;46.90;;;;;;5032080;28;19920;-61
2022/08/21 04:19:21;;;;;;;;;;;23.60;46.90;;;;;;5033041;28;19925;-61
2022/08/21 04:21:49;;;;;;;;;;;23.60;46.90;;;;;;5038509;28;19953;-62
2022/08/21 04:24:16;;;;;;;;;;;23.60;47.00;;;;;;5030961;28;19921;-61
2022/08/21 04:26:43;;;;;;;;;;;23.60;47.00;;;;;;5024641;28;19921;-61
2022/08/21 04:29:09;;;;;;;;;;;23.60;46.90;;;;;;5033135;28;19974;-61
2022/08/21 04:31:37;;;;;;;;;;;23.60;47.00;;;;;;5048897;28;19924;-61
2022/08/21 04:34:04;;;;;;;;;;;23.60;47.00;;;;;;5031979;28;19921;-62
2022/08/21 04:36:31;;;;;;;;;;;23.60;47.00;;;;;;5048985;28;19925;-61
2022/08/21 04:39:01;;;;;;;;;;;23.60;47.00;;;;;;5032587;28;19929;-61
2022/08/21 04:41:28;;;;;;;;;;;23.60;47.00;;;;;;5033864;28;19979;-61
2022/08/21 04:43:55;;;;;;;;;;;23.60;47.00;;;;;;5037151;28;20007;-62
2022/08/21 04:46:22;;;;;;;;;;;23.60;46.90;;;;;;5048981;28;19931;-61
2022/08/21 04:48:50;;;;;;;;;;;23.60;46.90;;;;;;5031881;28;20354;-61
2022/08/21 04:51:17;;;;;;;;;;;23.60;46.90;;;;;;5032853;28;20042;-61
2022/08/21 04:53:44;;;;;;;;;;;23.60;46.90;;;;;;5049000;28;19925;-62
2022/08/21 04:56:12;;;;;;;;;;;23.60;46.90;;;;;;5041043;28;19979;-61
2022/08/21 04:58:39;;;;;;;;;;;23.60;46.90;;;;;;5048953;28;19920;-61
2022/08/21 05:01:06;;;;;;;;;;;23.60;46.90;;;;;;5051597;28;19924;-61
2022/08/21 05:03:33;;;;;;;;;;;23.60;46.90;;;;;;5051772;28;19970;-61
2022/08/21 05:06:12;;;;;;;;;;;23.60;46.90;;;;;;5036286;28;20008;-61
2022/08/21 05:08:39;;;;;;;;;;;23.60;46.90;;;;;;5047910;28;20385;-62
2022/08/21 05:11:06;;;;;;;;;;;23.60;46.90;;;;;;5037916;28;20027;-61
2022/08/21 05:13:33;;;;;;;;;;;23.60;46.90;;;;;;5019683;28;19921;-61
2022/08/21 05:15:59;;;;;;;;;;;23.50;46.80;;;;;;5030282;28;19932;-61
2022/08/21 05:18:26;;;;;;;;;;;23.50;46.80;;;;;;5031518;28;19921;-62
2022/08/21 05:20:53;;;;;;;;;;;23.50;46.90;;;;;;5023610;28;19963;-61
2022/08/21 05:23:21;;;;;;;;;;;23.50;46.90;;;;;;5049395;28;19935;-62
2022/08/21 05:25:48;;;;;;;;;;;23.50;46.90;;;;;;5030947;28;19920;-62
2022/08/21 05:28:15;;;;;;;;;;;23.50;46.90;;;;;;5038138;28;20002;-61
2022/08/21 05:30:41;;;;;;;;;;;23.50;46.90;;;;;;5049351;28;19929;-62
2022/08/21 05:33:08;;;;;;;;;;;23.50;46.90;;;;;;5037621;28;19926;-61
2022/08/21 05:35:35;;;;;;;;;;;23.50;46.90;;;;;;5040636;28;19921;-61
2022/08/21 05:38:02;;;;;;;;;;;23.50;46.90;;;;;;5031964;28;19967;-61
2022/08/21 05:40:30;;;;;;;;;;;23.50;46.90;;;;;;5036546;28;19933;-61
2022/08/21 05:42:58;;;;;;;;;;;23.50;46.90;;;;;;5041404;28;19925;-62
2022/08/21 05:45:26;;;;;;;;;;;23.50;46.90;;;;;;5057278;28;19977;-61
2022/08/21 05:47:53;;;;;;;;;;;23.50;46.80;;;;;;5040997;28;19927;-61
2022/08/21 05:50:20;;;;;;;;;;;23.50;46.80;;;;;;5039088;28;20027;-61
2022/08/21 05:52:47;;;;;;;;;;;23.50;46.80;;;;;;5039778;28;19957;-62
2022/08/21 05:55:13;;;;;;;;;;;23.50;46.80;;;;;;5039316;28;19964;-61
2022/08/21 05:57:41;;;;;;;;;;;23.50;46.80;;;;;;5038097;28;19924;-61
2022/08/21 06:00:09;;;;;;;;;;;23.50;46.90;;;;;;5036464;28;19975;-61
2022/08/21 06:02:36;;;;;;;;;;;23.50;46.90;;;;;;5052244;28;20028;-62
2022/08/21 06:05:03;;;;;;;;;;;23.50;46.90;;;;;;5035341;28;19921;-61
2022/08/21 06:07:30;;;;;;;;;;;23.50;46.90;;;;;;5038090;28;20055;-62
2022/08/21 06:09:56;;;;;;;;;;;23.50;46.90;;;;;;5048104;28;19921;-61
2022/08/21 06:12:23;;;;;;;;;;;23.50;46.90;;;;;;5030986;28;20016;-61
2022/08/21 06:14:52;;;;;;;;;;;23.50;46.90;;;;;;5037124;28;19925;-61
2022/08/21 06:17:18;;;;;;;;;;;23.50;46.90;;;;;;5034805;28;20393;-61
2022/08/21 06:19:45;;;;;;;;;;;23.50;47.00;;;;;;5056960;28;19920;-61
2022/08/21 06:22:13;;;;;;;;;;;23.50;47.00;;;;;;5040477;28;19985;-62
2022/08/21 06:24:40;;;;;;;;;;;23.50;47.00;;;;;;5057538;28;19990;-62
2022/08/21 06:27:07;;;;;;;;;;;23.50;47.00;;;;;;5033637;28;19921;-62
2022/08/21 06:29:34;;;;;;;;;;;23.50;46.90;;;;;;5043280;28;19927;-61
2022/08/21 06:32:03;;;;;;;;;;;23.50;46.90;;;;;;5055538;28;19928;-61
2022/08/21 06:34:29;;;;;;;;;;;23.50;46.90;;;;;;5043572;28;19956;-62
2022/08/21 06:36:56;;;;;;;;;;;23.50;46.90;;;;;;5062653;28;19924;-62
2022/08/21 06:39:23;;;;;;;;;;;23.50;47.00;;;;;;5041532;28;19930;-61
2022/08/21 06:41:49;;;;;;;;;;;23.50;47.00;;;;;;5043385;28;19924;-61
2022/08/21 06:44:16;;;;;;;;;;;23.50;47.00;;;;;;5041841;28;19921;-61
2022/08/21 06:46:43;;;;;;;;;;;23.50;47.10;;;;;;5045183;28;20110;-61
2022/08/21 06:49:12;;;;;;;;;;;23.50;47.10;;;;;;5043712;28;19920;-61
2022/08/21 06:51:39;;;;;;;;;;;23.50;47.20;;;;;;5059963;28;19983;-61
2022/08/21 06:54:06;;;;;;;;;;;23.50;47.30;;;;;;5043631;28;19943;-61
2022/08/21 06:56:33;;;;;;;;;;;23.50;47.30;;;;;;5039693;28;20377;-62
2022/08/21 06:58:59;;;;;;;;;;;23.50;47.40;;;;;;5044199;28;19986;-61
2022/08/21 07:01:26;;;;;;;;;;;23.50;47.40;;;;;;5040396;28;19989;-61
2022/08/21 07:03:53;;;;;;;;;;;23.50;47.40;;;;;;5060522;28;20019;-61
2022/08/21 07:06:21;;;;;;;;;;;23.60;47.50;;;;;;5035825;28;19924;-62
2022/08/21 07:08:48;;;;;;;;;;;23.60;47.50;;;;;;5038234;28;19944;-61
2022/08/21 07:11:15;;;;;;;;;;;23.60;47.50;;;;;;5056159;28;19921;-61
2022/08/21 07:13:42;;;;;;;;;;;23.60;47.50;;;;;;5043709;28;20062;-61
2022/08/21 07:16:09;;;;;;;;;;;23.60;47.50;;;;;;5041800;28;19974;-61
2022/08/21 07:18:35;;;;;;;;;;;23.60;47.50;;;;;;5042820;28;20239;-61
2022/08/21 07:21:03;;;;;;;;;;;23.60;47.50;;;;;;5044513;28;19929;-61
2022/08/21 07:23:31;;;;;;;;;;;23.60;47.50;;;;;;5043423;28;19927;-61
2022/08/21 07:25:59;;;;;;;;;;;23.60;47.50;;;;;;5056755;28;19928;-61
2022/08/21 07:28:25;;;;;;;;;;;23.60;47.50;;;;;;5038692;28;20023;-61
2022/08/21 07:30:52;;;;;;;;;;;23.60;47.50;;;;;;5041833;28;19967;-62
2022/08/21 07:33:19;;;;;;;;;;;23.60;47.50;;;;;;5043414;28;19933;-61
2022/08/21 07:35:45;;;;;;;;;;;23.60;47.50;;;;;;5043791;28;19952;-61
2022/08/21 07:38:12;;;;;;;;;;;23.60;47.60;;;;;;5042136;28;19924;-61
2022/08/21 07:40:40;;;;;;;;;;;23.60;47.60;;;;;;5057545;28;19920;-62
2022/08/21 07:43:07;;;;;;;;;;;23.60;47.60;;;;;;5046624;28;19926;-62
2022/08/21 07:45:34;;;;;;;;;;;23.60;47.40;;;;;;5025021;28;19952;-61
2022/08/21 07:48:01;;;;;;;;;;;23.60;47.40;;;;;;5036597;28;19921;-61
2022/08/21 07:50:28;;;;;;;;;;;23.60;47.40;;;;;;5043928;28;19925;-62
2022/08/21 07:52:54;;;;;;;;;;;23.60;47.40;;;;;;5051547;28;20298;-61
2022/08/21 07:55:22;;;;;;;;;;;23.60;47.50;;;;;;5027839;28;19921;-62
2022/08/21 07:57:50;;;;;;;;;;;23.60;47.30;;;;;;5042326;28;19980;-61
2022/08/21 08:00:17;;;;;;;;;;;23.50;47.30;;;;;;5038525;28;20015;-61
2022/08/21 08:02:45;;;;;;;;;;;23.60;47.20;;;;;;5030402;28;20021;-61
2022/08/21 08:05:11;;;;;;;;;;;23.60;47.30;;;;;;5027498;28;19925;-61
2022/08/21 08:07:38;;;;;;;;;;;23.50;47.20;;;;;;5054780;28;20095;-62
2022/08/21 08:10:06;;;;;;;;;;;23.60;47.20;;;;;;5036779;28;19991;-61
2022/08/21 08:12:33;;;;;;;;;;;23.50;47.20;;;;;;5060550;28;20309;-61
2022/08/21 08:15:01;;;;;;;;;;;23.50;47.00;;;;;;5036596;28;19986;-61
2022/08/21 08:17:28;;;;;;;;;;;23.50;47.00;;;;;;5042073;28;19920;-61
2022/08/21 08:19:55;;;;;;;;;;;23.50;47.00;;;;;;5040536;28;19920;-62
2022/08/21 08:22:23;;;;;;;;;;;23.50;47.00;;;;;;5040832;28;19970;-61
2022/08/21 08:24:50;;;;;;;;;;;23.50;47.00;;;;;;5042756;28;20358;-61
2022/08/21 08:27:17;;;;;;;;;;;23.50;47.10;;;;;;5048945;28;19939;-62
2022/08/21 08:29:43;;;;;;;;;;;23.50;47.10;;;;;;5035515;28;20584;-61
2022/08/21 08:32:11;;;;;;;;;;;23.50;47.30;;;;;;5029575;28;19925;-61
2022/08/21 08:34:39;;;;;;;;;;;23.50;47.30;;;;;;5039888;28;19927;-62
2022/08/21 08:37:05;;;;;;;;;;;23.50;47.40;;;;;;5040010;28;20370;-61
2022/08/21 08:39:32;;;;;;;;;;;23.50;47.50;;;;;;5037893;28;20325;-61
2022/08/21 08:42:00;;;;;;;;;;;23.50;47.60;;;;;;5028938;28;20007;-61
2022/08/21 08:44:27;;;;;;;;;;;23.50;47.70;;;;;;5035484;28;19921;-67
2022/08/21 08:46:54;;;;;;;;;;;23.50;47.80;;;;;;5032264;28;19924;-61
2022/08/21 08:49:23;;;;;;;;;;;23.50;47.80;;;;;;5052978;28;20047;-62
2022/08/21 08:51:52;;;;;;;;;;;23.50;47.90;;;;;;5047453;28;19978;-61
2022/08/21 08:54:20;;;;;;;;;;;23.50;47.90;;;;;;5031877;28;20019;-62
2022/08/21 08:56:47;;;;;;;;;;;23.50;48.00;;;;;;5049017;28;19960;-62
2022/08/21 08:59:15;;;;;;;;;;;23.50;47.90;;;;;;5028102;28;19979;-62
2022/08/21 09:01:42;;;;;;;;;;;23.50;47.90;;;;;;5032074;28;19921;-62
2022/08/21 09:04:12;;;;;;;;;;;23.50;47.80;;;;;;5018828;28;19921;-62
2022/08/21 09:06:43;;;;;;;;;;;23.50;47.70;;;;;;5030463;28;20259;-62
2022/08/21 09:09:13;;;;;;;;;;;23.50;47.70;;;;;;5051421;28;19962;-61
2022/08/21 09:11:42;;;;;;;;;;;23.50;47.70;;;;;;5027822;28;19971;-61
2022/08/21 09:14:10;;;;;;;;;;;23.50;47.70;;;;;;5027145;28;19921;-61
2022/08/21 09:16:39;;;;;;;;;;;23.50;47.70;;;;;;5032942;28;20034;-61
2022/08/21 09:19:08;;;;;;;;;;;23.50;47.70;;;;;;5028890;28;20271;-61
2022/08/21 09:21:37;;;;;;;;;;;23.50;47.70;;;;;;5047028;28;19925;-62
2022/08/21 09:24:19;;;;;;;;;;;23.50;47.70;;;;;;5032710;28;19931;-62
2022/08/21 09:26:48;;;;;;;;;;;23.50;47.80;;;;;;5025530;28;20027;-62
2022/08/21 09:29:14;;;;;;;;;;;23.50;47.80;;;;;;5032090;28;19921;-62
2022/08/21 09:31:41;;;;;;;;;;;23.50;47.80;;;;;;5031020;28;19920;-61
2022/08/21 09:34:08;;;;;;;;;;;23.60;47.90;;;;;;5040292;28;20015;-62
2022/08/21 09:36:37;;;;;;;;;;;23.60;47.90;;;;;;5044290;28;20015;-61
2022/08/21 09:39:07;;;;;;;;;;;23.60;47.90;;;;;;5031890;28;19931;-61
2022/08/21 09:41:35;;;;;;;;;;;23.50;47.90;;;;;;5031145;28;19952;-60
2022/08/21 09:44:01;;;;;;;;;;;23.60;48.00;;;;;;5034960;28;19927;-60
2022/08/21 09:46:28;;;;;;;;;;;23.60;48.00;;;;;;5033651;28;19922;-59
2022/08/21 09:48:55;;;;;;;;;;;23.60;48.00;;;;;;5045369;28;19925;-59
2022/08/21 09:51:23;;;;;;;;;;;23.60;48.00;;;;;;5053894;28;19921;-61
2022/08/21 09:53:52;;;;;;;;;;;23.60;48.00;;;;;;5026979;28;19932;-59
2022/08/21 09:59:15;;;;;;;;;;;23.60;47.90;;;;;;5057493;28;19925;-60
2022/08/21 10:01:43;;;;;;;;;;;23.60;47.80;;;;;;5040825;28;19947;-60
2022/08/21 10:04:10;;;;;;;;;;;23.60;47.70;;;;;;5041147;28;19987;-60
2022/08/21 10:06:36;;;;;;;;;;;23.60;47.80;;;;;;5045754;28;19979;-60
2022/08/21 10:09:04;;;;;;;;;;;23.60;47.80;;;;;;5041490;28;19975;-60
2022/08/21 10:11:32;;;;;;;;;;;23.60;47.80;;;;;;5045829;28;19920;-63
2022/08/21 10:14:00;;;;;;;;;;;23.60;47.80;;;;;;5041467;28;19924;-60
2022/08/21 10:16:29;;;;;;;;;;;23.60;47.70;;;;;;5040512;28;20013;-60
2022/08/21 10:18:57;;;;;;;;;;;23.60;47.70;;;;;;5042346;28;19924;-60
2022/08/21 10:21:24;;;;;;;;;;;23.70;47.80;;;;;;5040173;28;20400;-60
2022/08/21 10:23:55;;;;;;;;;;;23.60;47.70;;;;;;5039741;28;20285;-60
2022/08/21 10:26:26;;;;;;;;;;;23.70;47.80;;;;;;5045296;28;19927;-60
2022/08/21 10:28:56;;;;;;;;;;;23.70;47.90;;;;;;5061789;28;19978;-60
2022/08/21 10:31:27;;;;;;;;;;;23.70;47.90;;;;;;5055302;28;20016;-60
2022/08/21 10:33:54;;;;;;;;;;;23.70;47.90;;;;;;5061351;28;19924;-59
2022/08/21 10:36:22;;;;;;;;;;;23.70;47.80;;;;;;5042664;28;19928;-60
2022/08/21 10:38:56;;;;;;;;;;;23.70;47.70;;;;;;5043499;28;19925;-59
2022/08/21 10:41:25;;;;;;;;;;;23.70;47.70;;;;;;5042030;28;19921;-59
2022/08/21 10:43:53;;;;;;;;;;;23.70;47.50;;;;;;5060842;28;19920;-59
2022/08/21 10:46:34;;;;;;;;;;;23.70;47.50;;;;;;5044086;28;20323;-59
2022/08/21 10:49:08;;;;;;;;;;;23.70;47.50;;;;;;5038447;28;19952;-60
2022/08/21 10:51:36;;;;;;;;;;;23.70;47.40;;;;;;5029528;28;20023;-60
2022/08/21 10:54:04;;;;;;;;;;;23.70;47.20;;;;;;5024514;28;19925;-61
2022/08/21 10:56:31;;;;;;;;;;;23.70;47.40;;;;;;5052375;28;19921;-60
2022/08/21 10:59:01;;;;;;;;;;;23.70;47.40;;;;;;5051635;28;20289;-60
2022/08/21 11:01:30;;;;;;;;;;;23.70;47.40;;;;;;5035668;28;19929;-59
2022/08/21 11:04:02;;;;;;;;;;;23.80;47.50;;;;;;5042826;28;19925;-60
2022/08/21 11:06:30;;;;;;;;;;;23.70;47.30;;;;;;5040606;28;20020;-60
2022/08/21 11:08:59;;;;;;;;;;;23.80;47.30;;;;;;5029435;28;19966;-60
2022/08/21 11:11:26;;;;;;;;;;;23.80;46.90;;;;;;5027898;28;19944;-60
2022/08/21 11:13:54;;;;;;;;;;;23.80;46.90;;;;;;5043103;28;19978;-60
2022/08/21 11:16:23;;;;;;;;;;;23.80;46.90;;;;;;5032466;28;20032;-60
2022/08/21 11:18:52;;;;;;;;;;;23.80;46.90;;;;;;5032067;28;19920;-60
2022/08/21 11:21:30;;;;;;;;;;;23.80;46.90;;;;;;5018720;28;20024;-60
2022/08/21 11:23:58;;;;;;;;;;;23.80;46.90;;;;;;5039612;28;19952;-60
2022/08/21 11:26:26;;;;;;;;;;;23.80;46.90;;;;;;5034324;28;19932;-60
2022/08/21 11:28:55;;;;;;;;;;;23.80;47.00;;;;;;5032707;28;20071;-60
2022/08/21 11:31:25;;;;;;;;;;;23.80;47.00;;;;;;5052258;28;19968;-60
2022/08/21 11:33:57;;;;;;;;;;;23.80;47.10;;;;;;5017660;28;19925;-59
2022/08/21 11:36:26;;;;;;;;;;;23.80;47.20;;;;;;5032850;28;20413;-60
2022/08/21 11:38:54;;;;;;;;;;;23.80;47.20;;;;;;5024636;28;19975;-60
2022/08/21 11:41:24;;;;;;;;;;;23.80;47.20;;;;;;5047611;28;20325;-60
2022/08/21 11:43:54;;;;;;;;;;;23.80;47.20;;;;;;5033827;28;19920;-60
2022/08/21 11:46:25;;;;;;;;;;;23.80;47.20;;;;;;5051934;28;19976;-60
2022/08/21 11:48:55;;;;;;;;;;;23.80;47.20;;;;;;5026555;28;19928;-60
2022/08/21 11:51:23;;;;;;;;;;;23.90;47.30;;;;;;5029721;28;19975;-60
2022/08/21 11:53:54;;;;;;;;;;;23.80;47.80;;;;;;5016291;28;19975;-60
2022/08/21 11:56:22;;;;;;;;;;;23.90;47.40;;;;;;5021337;28;20342;-60
2022/08/21 11:58:49;;;;;;;;;;;23.90;47.40;;;;;;5013688;28;19960;-60
2022/08/21 12:01:16;;;;;;;;;;;23.90;47.40;;;;;;5032859;28;19960;-60
2022/08/21 12:03:45;;;;;;;;;;;23.90;47.40;;;;;;5049714;28;19987;-60
2022/08/21 12:06:13;;;;;;;;;;;23.90;47.40;;;;;;5020850;28;19979;-60
2022/08/21 12:08:42;;;;;;;;;;;23.90;47.40;;;;;;5022578;28;19921;-60
2022/08/21 12:11:09;;;;;;;;;;;24.00;47.50;;;;;;5032646;28;19974;-61
2022/08/21 12:13:36;;;;;;;;;;;23.90;47.40;;;;;;5040959;28;19921;-60
2022/08/21 12:16:06;;;;;;;;;;;24.00;47.50;;;;;;5025336;28;19932;-60
2022/08/21 12:18:33;;;;;;;;;;;24.00;47.50;;;;;;5032207;28;19995;-60
2022/08/21 12:21:02;;;;;;;;;;;24.00;47.50;;;;;;5033282;28;19986;-59
2022/08/21 12:23:29;;;;;;;;;;;24.00;47.50;;;;;;5040223;28;19975;-60
2022/08/21 12:26:10;;;;;;;;;;;24.00;47.50;;;;;;5042096;28;19921;-60
2022/08/21 12:28:37;;;;;;;;;;;24.00;47.50;;;;;;5042464;28;19925;-60
2022/08/21 12:31:04;;;;;;;;;;;24.00;47.50;;;;;;5041383;28;19920;-62
2022/08/21 12:33:31;;;;;;;;;;;24.00;47.50;;;;;;5042214;28;19924;-60
2022/08/21 12:36:03;;;;;;;;;;;24.10;47.60;;;;;;5040927;28;19932;-61
2022/08/21 12:38:30;;;;;;;;;;;24.00;47.50;;;;;;5040503;28;19951;-61
2022/08/21 12:40:57;;;;;;;;;;;24.10;47.60;;;;;;5038412;28;19924;-61
2022/08/21 12:43:28;;;;;;;;;;;24.00;47.50;;;;;;5042563;28;19956;-60
2022/08/21 12:45:55;;;;;;;;;;;24.10;47.60;;;;;;5047128;28;19929;-61
2022/08/21 12:48:23;;;;;;;;;;;24.00;47.50;;;;;;5032500;28;19932;-62
2022/08/21 12:50:50;;;;;;;;;;;24.10;47.60;;;;;;5030056;28;19970;-61
2022/08/21 12:53:21;;;;;;;;;;;24.10;47.60;;;;;;5032769;28;20301;-60
2022/08/21 12:55:48;;;;;;;;;;;24.10;47.60;;;;;;5036985;28;19947;-60
2022/08/21 12:58:18;;;;;;;;;;;24.10;47.60;;;;;;5028101;28;20378;-60
2022/08/21 13:00:49;;;;;;;;;;;24.10;47.60;;;;;;5031620;28;20004;-61
2022/08/21 13:03:16;;;;;;;;;;;24.10;47.60;;;;;;5024401;28;19925;-60
2022/08/21 13:05:43;;;;;;;;;;;24.10;47.60;;;;;;5032772;28;19979;-61
2022/08/21 13:08:11;;;;;;;;;;;24.10;47.50;;;;;;5043170;28;19925;-61
2022/08/21 13:10:37;;;;;;;;;;;24.10;47.50;;;;;;5049581;28;20027;-60
2022/08/21 13:13:05;;;;;;;;;;;24.10;47.50;;;;;;5032388;28;19921;-61
2022/08/21 13:15:32;;;;;;;;;;;24.10;47.50;;;;;;5052384;28;19924;-61
2022/08/21 13:18:02;;;;;;;;;;;24.10;47.50;;;;;;5032000;28;20386;-61
2022/08/21 13:20:29;;;;;;;;;;;24.10;47.50;;;;;;5036235;28;20070;-60
2022/08/21 13:22:57;;;;;;;;;;;24.10;47.50;;;;;;5031535;28;20248;-60
2022/08/21 13:25:26;;;;;;;;;;;24.10;47.50;;;;;;5051961;28;19928;-60
2022/08/21 13:28:00;;;;;;;;;;;24.10;47.50;;;;;;5037398;28;20066;-60
2022/08/21 13:30:27;;;;;;;;;;;24.10;47.50;;;;;;5034163;28;19987;-60
2022/08/21 13:32:56;;;;;;;;;;;24.20;47.60;;;;;;5037560;28;19928;-58
2022/08/21 13:35:26;;;;;;;;;;;24.10;47.50;;;;;;5031321;28;19925;-62
2022/08/21 13:37:53;;;;;;;;;;;24.10;47.50;;;;;;5031747;28;19964;-60
2022/08/21 13:40:20;;;;;;;;;;;24.10;47.50;;;;;;5024445;28;19933;-61
2022/08/21 13:42:48;;;;;;;;;;;24.20;47.60;;;;;;5030626;28;19964;-60
2022/08/21 13:45:15;;;;;;;;;;;24.20;47.50;;;;;;5049433;28;19920;-61
2022/08/21 13:47:43;;;;;;;;;;;24.20;47.40;;;;;;5016012;28;19929;-60
2022/08/21 13:50:09;;;;;;;;;;;24.20;47.40;;;;;;5044997;28;20345;-60
2022/08/21 13:52:45;;;;;;;;;;;24.20;47.40;;;;;;5042365;28;20014;-60
2022/08/21 13:55:13;;;;;;;;;;;24.20;47.30;;;;;;5037051;28;19928;-61
2022/08/21 13:57:40;;;;;;;;;;;24.20;47.30;;;;;;5041304;28;19933;-60
2022/08/21 14:00:11;;;;;;;;;;;24.20;47.20;;;;;;5031153;28;19994;-60
2022/08/21 14:02:39;;;;;;;;;;;24.20;47.20;;;;;;5017219;28;19921;-60
2022/08/21 16:23:55;;;;;;;;;;;24.30;47.70;;;;;;4843819;29;19948;-60
2022/08/21 16:26:27;;;;;;;;;;;24.40;47.70;;;;;;4781739;29;19937;-60
2022/08/21 16:28:55;;;;;;;;;;;24.40;47.80;;;;;;4763437;29;20384;-60
2022/08/21 16:31:23;;;;;;;;;;;24.40;47.60;;;;;;4799577;29;19936;-60
2022/08/21 16:33:50;;;;;;;;;;;24.30;47.60;;;;;;4783303;29;19976;-60
2022/08/21 16:36:17;;;;;;;;;;;24.40;47.70;;;;;;4787178;29;19932;-59
2022/08/21 16:38:47;;;;;;;;;;;24.40;47.60;;;;;;4794489;29;19948;-60
2022/08/21 16:41:16;;;;;;;;;;;24.40;47.70;;;;;;4767015;29;19925;-60